createdAt,value
2023-05-09T00:03:34.068Z,88.09
2023-05-09T00:07:35.635Z,87.87
2023-05-09T00:11:37.152Z,87.50
2023-05-09T00:15:40.051Z,87.51
2023-05-09T00:19:41.530Z,87.93
2023-05-09T00:23:43.055Z,88.04
2023-05-09T00:27:44.554Z,88.18
2023-05-09T00:31:47.455Z,87.80
2023-05-09T00:35:48.968Z,87.47
2023-05-09T00:39:50.485Z,86.93
2023-05-09T00:43:52.013Z,87.46
2023-05-09T00:47:55.546Z,87.46
2023-05-09T00:51:57.128Z,88.09
2023-05-09T00:56:00.465Z,87.99
2023-05-09T01:00:02.174Z,88.66
2023-05-09T01:04:05.444Z,88.48
2023-05-09T01:08:13.179Z,89.05
2023-05-09T01:12:30.153Z,88.65
2023-05-09T01:16:37.817Z,89.39
2023-05-09T01:20:44.347Z,90.12
2023-05-09T01:25:06.112Z,90.86
2023-05-09T01:29:36.674Z,90.61
2023-05-09T01:33:42.519Z,90.55
2023-05-09T01:37:49.792Z,90.87
2023-05-09T01:41:53.688Z,91.28
2023-05-09T01:45:59.047Z,91.00
2023-05-09T01:50:03.218Z,90.07
2023-05-09T01:54:06.604Z,90.68
2023-05-09T01:58:08.835Z,90.26
2023-05-09T02:02:12.724Z,89.36
2023-05-09T02:06:15.968Z,89.01
2023-05-09T02:10:17.678Z,87.91
2023-05-09T02:14:19.320Z,88.10
2023-05-09T02:18:22.209Z,88.98
2023-05-09T02:22:23.928Z,88.91
2023-05-09T02:26:26.670Z,89.37
2023-05-09T02:30:34.972Z,88.76
2023-05-09T02:34:39.237Z,89.16
2023-05-09T02:38:40.909Z,90.71
2023-05-09T02:42:42.401Z,91.32
2023-05-09T02:46:44.122Z,91.70
2023-05-09T02:50:46.986Z,91.50
2023-05-09T02:54:48.512Z,91.88
2023-05-09T02:58:50.007Z,92.53
2023-05-09T03:02:51.682Z,92.24
2023-05-09T03:06:54.593Z,91.89
2023-05-09T03:10:56.111Z,91.85
2023-05-09T03:14:57.718Z,91.36
2023-05-09T03:18:59.257Z,91.63
2023-05-09T03:23:02.140Z,92.63
2023-05-09T03:27:03.770Z,92.89
2023-05-09T03:31:05.394Z,92.34
2023-05-09T03:35:07.768Z,90.58
2023-05-09T03:39:10.693Z,91.35
2023-05-09T03:43:12.233Z,91.93
2023-05-09T03:47:13.767Z,91.99
2023-05-09T03:51:15.350Z,92.79
2023-05-09T03:55:18.214Z,94.27
2023-05-09T03:59:19.751Z,94.48
2023-05-09T04:03:21.373Z,94.24
2023-05-09T04:07:22.999Z,94.43
2023-05-09T04:11:25.893Z,94.13
2023-05-09T04:15:27.429Z,94.03
2023-05-09T04:19:28.929Z,93.28
2023-05-09T04:23:30.514Z,93.46
2023-05-09T04:27:33.405Z,91.28
2023-05-09T04:31:35.015Z,92.82
2023-05-09T04:35:36.629Z,92.91
2023-05-09T04:39:38.141Z,92.43
2023-05-09T04:43:41.303Z,91.17
2023-05-09T04:47:42.742Z,87.55
2023-05-09T04:51:44.286Z,84.37
2023-05-09T04:55:45.824Z,83.15
2023-05-09T04:59:49.844Z,81.44
2023-05-09T05:03:51.405Z,79.86
2023-05-09T05:07:53.270Z,78.65
2023-05-09T05:12:01.631Z,76.15
2023-05-09T05:16:06.461Z,74.13
2023-05-09T05:20:08.729Z,67.61
2023-05-09T05:24:10.302Z,67.59
2023-05-09T05:28:11.830Z,63.01
2023-05-09T05:32:14.699Z,57.35
2023-05-09T05:36:16.229Z,55.52
2023-05-09T05:40:17.830Z,49.26
2023-05-09T05:44:19.393Z,47.02
2023-05-09T05:48:22.313Z,45.52
2023-05-09T05:52:23.874Z,48.35
2023-05-09T05:56:25.388Z,48.51
2023-05-09T06:00:26.952Z,46.69
2023-05-09T06:04:29.812Z,44.09
2023-05-09T06:08:31.383Z,41.09
2023-05-09T06:12:32.951Z,40.56
2023-05-09T06:16:34.535Z,40.68
2023-05-09T06:20:37.446Z,39.25
2023-05-09T06:24:38.845Z,37.44
2023-05-09T06:28:40.369Z,40.47
2023-05-09T06:32:41.974Z,39.02
2023-05-09T06:36:44.884Z,40.16
2023-05-09T06:40:46.261Z,37.10
2023-05-09T06:44:47.846Z,39.40
2023-05-09T06:48:49.370Z,42.12
2023-05-09T06:52:52.253Z,45.88
2023-05-09T06:56:53.871Z,40.86
2023-05-09T07:00:55.492Z,33.95
2023-05-09T07:04:57.136Z,39.46
2023-05-09T07:09:00.626Z,36.74
2023-05-09T07:13:02.210Z,38.26
2023-05-09T07:17:21.267Z,39.14
2023-05-09T07:21:24.736Z,37.42
2023-05-09T07:25:27.618Z,37.59
2023-05-09T07:29:29.102Z,35.76
2023-05-09T07:33:30.653Z,39.08
2023-05-09T07:37:32.197Z,39.05
2023-05-09T07:41:35.238Z,34.77
2023-05-09T07:45:36.831Z,35.67
2023-05-09T07:49:38.387Z,36.60
2023-05-09T07:53:39.961Z,38.68
2023-05-09T07:57:42.842Z,35.36
2023-05-09T08:01:44.285Z,34.69
2023-05-09T08:05:45.846Z,37.02
2023-05-09T08:09:47.379Z,39.12
2023-05-09T08:13:50.257Z,37.86
2023-05-09T08:17:51.913Z,35.56
2023-05-09T08:21:53.491Z,33.30
2023-05-09T08:25:55.214Z,31.15
2023-05-09T08:29:58.081Z,33.45
2023-05-09T08:33:59.458Z,35.42
2023-05-09T08:38:00.998Z,36.96
2023-05-09T08:42:02.697Z,32.28
2023-05-09T08:46:08.045Z,36.65
2023-05-09T08:50:09.935Z,32.39
2023-05-09T08:54:11.796Z,34.48
2023-05-09T08:58:13.778Z,34.35
2023-05-09T09:02:16.774Z,35.60
2023-05-09T09:06:19.202Z,33.97
2023-05-09T09:10:22.199Z,36.93
2023-05-09T09:14:24.040Z,38.17
2023-05-09T09:18:29.951Z,35.33
2023-05-09T09:22:33.644Z,36.18
2023-05-09T09:26:45.292Z,38.80
2023-05-09T09:30:47.780Z,40.14
2023-05-09T09:34:50.694Z,42.08
2023-05-09T09:38:56.208Z,41.07
2023-05-09T09:42:57.773Z,39.29
2023-05-09T09:46:59.302Z,39.62
2023-05-09T09:51:07.859Z,40.79
2023-05-09T09:55:09.586Z,39.11
2023-05-09T09:59:12.405Z,39.66
2023-05-09T10:03:16.927Z,38.30
2023-05-09T10:07:22.764Z,38.28
2023-05-09T10:11:24.315Z,36.56
2023-05-09T10:15:26.541Z,37.89
2023-05-09T10:19:29.682Z,35.38
2023-05-09T10:23:36.603Z,35.76
2023-05-09T10:27:39.886Z,36.47
2023-05-09T10:31:44.360Z,34.78
2023-05-09T10:35:47.036Z,35.47
2023-05-09T10:39:50.420Z,34.45
2023-05-09T10:43:52.406Z,36.14
2023-05-09T10:47:54.639Z,34.68
2023-05-09T10:51:56.221Z,36.79
2023-05-09T10:55:59.121Z,35.28
2023-05-09T11:00:00.665Z,37.74
2023-05-09T11:04:08.676Z,38.58
2023-05-09T11:08:27.063Z,37.70
2023-05-09T11:12:29.945Z,39.32
2023-05-09T11:16:31.529Z,39.05
2023-05-09T11:20:34.284Z,37.69
2023-05-09T11:24:38.194Z,38.74
2023-05-09T11:28:41.121Z,38.41
2023-05-09T11:32:44.386Z,37.17
2023-05-09T11:36:47.645Z,39.73
2023-05-09T11:40:51.537Z,37.87
2023-05-09T11:44:56.031Z,36.15
2023-05-09T11:48:58.916Z,36.91
2023-05-09T11:53:00.284Z,35.37
2023-05-09T11:57:01.890Z,35.24
2023-05-09T12:01:04.990Z,34.97
2023-05-09T12:05:07.809Z,35.27
2023-05-09T12:09:09.239Z,36.55
2023-05-09T12:13:10.808Z,36.52
2023-05-09T12:17:13.739Z,35.38
2023-05-09T12:21:15.236Z,36.79
2023-05-09T12:25:17.107Z,36.05
2023-05-09T12:29:19.465Z,35.66
2023-05-09T12:33:22.612Z,34.49
2023-05-09T12:37:24.194Z,34.17
2023-05-09T12:45:32.324Z,33.35
2023-05-09T12:49:36.852Z,33.18
2023-05-09T12:53:39.986Z,32.86
2023-05-09T12:57:41.853Z,33.68
2023-05-09T13:01:51.113Z,33.09
2023-05-09T13:05:58.083Z,32.40
2023-05-09T13:09:59.624Z,33.06
2023-05-09T13:14:02.830Z,34.56
2023-05-09T13:18:04.436Z,31.68
2023-05-09T13:22:07.346Z,33.36
2023-05-09T13:26:08.728Z,32.33
2023-05-09T13:30:11.336Z,33.30
2023-05-09T13:34:12.865Z,33.12
2023-05-09T13:38:15.738Z,35.32
2023-05-09T13:42:19.123Z,34.40
2023-05-09T13:46:20.890Z,34.45
2023-05-09T13:50:22.630Z,33.67
2023-05-09T13:54:25.683Z,33.52
2023-05-09T13:58:27.263Z,35.04
2023-05-09T14:02:28.868Z,35.87
2023-05-09T14:06:30.432Z,35.50
2023-05-09T14:10:33.304Z,36.77
2023-05-09T14:14:35.255Z,35.59
2023-05-09T14:18:36.792Z,36.87
2023-05-09T14:22:38.373Z,37.28
2023-05-09T14:26:41.294Z,36.91
2023-05-09T14:30:42.890Z,38.35
2023-05-09T14:34:44.474Z,37.29
2023-05-09T14:38:46.333Z,39.91
2023-05-09T14:42:49.345Z,39.99
2023-05-09T14:46:50.951Z,40.11
2023-05-09T14:50:52.517Z,40.19
2023-05-09T14:54:54.078Z,39.57
2023-05-09T14:58:57.168Z,39.14
2023-05-09T15:02:58.713Z,40.13
2023-05-09T15:07:00.297Z,39.29
2023-05-09T15:11:01.884Z,40.02
2023-05-09T15:15:17.641Z,39.93
2023-05-09T15:19:19.264Z,39.79
2023-05-09T15:23:20.889Z,40.46
2023-05-09T15:27:22.415Z,39.20
2023-05-09T15:31:25.349Z,40.90
2023-05-09T15:35:27.000Z,40.20
2023-05-09T15:39:34.090Z,41.13
2023-05-09T15:43:35.626Z,40.81
2023-05-09T15:47:38.544Z,40.53
2023-05-09T15:51:40.137Z,40.64
2023-05-09T15:55:41.693Z,40.95
2023-05-09T15:59:43.211Z,40.96
2023-05-09T16:03:46.289Z,41.78
2023-05-09T16:07:48.027Z,41.85
2023-05-09T16:11:49.550Z,40.93
2023-05-09T16:15:51.212Z,41.49
2023-05-09T16:19:54.711Z,40.89
2023-05-09T16:23:56.253Z,41.25
2023-05-09T16:27:57.821Z,40.60
2023-05-09T16:31:59.363Z,40.27
2023-05-09T16:36:02.325Z,41.07
2023-05-09T16:40:04.851Z,40.26
2023-05-09T16:44:06.462Z,41.46
2023-05-09T16:48:08.068Z,40.86
2023-05-09T16:52:10.974Z,41.32
2023-05-09T16:56:12.343Z,41.86
2023-05-09T17:00:14.889Z,42.57
2023-05-09T17:04:16.924Z,42.15
2023-05-09T17:08:19.849Z,42.66
2023-05-09T17:12:21.190Z,43.04
2023-05-09T17:16:22.774Z,44.10
2023-05-09T17:20:24.417Z,44.08
2023-05-09T17:24:27.300Z,46.83
2023-05-09T17:28:28.675Z,47.95
2023-05-09T17:32:30.241Z,45.50
2023-05-09T17:36:31.869Z,52.44
2023-05-09T17:40:34.772Z,53.14
2023-05-09T17:44:36.152Z,51.69
2023-05-09T17:48:37.728Z,54.51
2023-05-09T17:52:39.258Z,55.97
2023-05-09T17:56:42.126Z,54.35
2023-05-09T18:00:43.507Z,55.96
2023-05-09T18:04:45.027Z,57.01
2023-05-09T18:08:46.558Z,58.39
2023-05-09T18:12:49.480Z,59.94
2023-05-09T18:16:51.015Z,61.18
2023-05-09T18:20:52.553Z,63.51
2023-05-09T18:24:54.082Z,65.53
2023-05-09T18:28:57.696Z,65.90
2023-05-09T18:32:59.434Z,65.96
2023-05-09T18:37:00.988Z,67.77
2023-05-09T18:41:02.494Z,68.46
2023-05-09T18:45:06.507Z,69.09
2023-05-09T18:49:08.032Z,69.09
2023-05-09T18:53:09.566Z,68.91
2023-05-09T18:57:11.079Z,68.55
2023-05-09T19:01:14.154Z,67.92
2023-05-09T19:05:15.569Z,68.26
2023-05-09T19:09:17.119Z,68.83
2023-05-09T19:13:18.738Z,68.46
2023-05-09T19:17:21.687Z,68.60
2023-05-09T19:21:23.410Z,69.76
2023-05-09T19:25:25.285Z,69.89
2023-05-09T19:29:26.893Z,70.91
2023-05-09T19:33:29.770Z,72.96
2023-05-09T19:37:31.291Z,72.78
2023-05-09T19:41:33.080Z,72.67
2023-05-09T19:45:34.779Z,73.74
2023-05-09T19:49:37.695Z,73.19
2023-05-09T19:53:40.192Z,75.07
2023-05-09T19:57:41.721Z,75.76
2023-05-09T20:01:43.305Z,75.41
2023-05-09T20:05:46.357Z,76.04
2023-05-09T20:09:47.890Z,76.82
2023-05-09T20:13:49.616Z,76.68
2023-05-09T20:17:51.285Z,77.17
2023-05-09T20:21:54.148Z,77.30
2023-05-09T20:30:06.563Z,78.86
2023-05-09T20:34:09.704Z,78.15
2023-05-09T20:38:12.415Z,77.99
2023-05-09T20:42:13.985Z,78.14
2023-05-09T20:46:15.840Z,79.06
2023-05-09T20:50:17.883Z,79.67
2023-05-09T20:54:21.011Z,79.73
2023-05-09T20:58:22.556Z,79.33
2023-05-09T21:02:24.158Z,78.87
2023-05-09T21:06:25.885Z,79.40
2023-05-09T21:10:28.754Z,78.33
2023-05-09T21:14:30.570Z,79.33
2023-05-09T21:18:32.135Z,79.40
2023-05-09T21:22:33.653Z,79.33
2023-05-09T21:26:36.552Z,80.03
2023-05-09T21:30:38.069Z,80.10
2023-05-09T21:34:39.598Z,79.84
2023-05-09T21:38:41.131Z,80.02
2023-05-09T21:42:44.452Z,79.44
2023-05-09T21:46:46.184Z,78.60
2023-05-09T21:50:48.011Z,79.82
2023-05-09T21:54:49.540Z,80.09
2023-05-09T21:58:52.420Z,79.04
2023-05-09T22:02:54.029Z,79.53
2023-05-09T22:06:55.603Z,79.34
2023-05-09T22:10:57.128Z,78.80
2023-05-09T22:15:00.005Z,79.00
2023-05-09T22:19:01.747Z,79.73
2023-05-09T22:23:03.324Z,79.79
2023-05-09T22:27:04.884Z,78.98
2023-05-09T22:31:07.978Z,79.60
2023-05-09T22:35:10.039Z,80.34
2023-05-09T22:39:11.565Z,80.08
2023-05-09T22:43:13.140Z,80.53
2023-05-09T22:47:16.062Z,80.41
2023-05-09T22:51:17.630Z,79.33
2023-05-09T22:55:19.200Z,80.47
2023-05-09T22:59:20.740Z,81.32
2023-05-09T23:03:23.708Z,80.96
2023-05-09T23:07:25.411Z,79.24
2023-05-09T23:11:26.975Z,80.31
2023-05-09T23:15:28.589Z,79.63
2023-05-09T23:19:31.473Z,80.13
2023-05-09T23:23:32.989Z,79.62
2023-05-09T23:27:34.519Z,78.56
2023-05-09T23:31:36.120Z,77.02
2023-05-09T23:35:39.018Z,77.36
2023-05-09T23:39:40.572Z,76.76
2023-05-09T23:43:42.097Z,76.76
2023-05-09T23:47:43.667Z,75.06
2023-05-09T23:51:46.571Z,75.49
2023-05-09T23:55:48.136Z,73.23
2023-05-09T23:59:49.659Z,73.31
